Time;durP1;ratioP1;P1;durP2;ratioP2;P2;SDS_P1;SDS_P2;PMS_P1;PMS_P2;Temp;Humidity;BMP_temperature;BMP_pressure;BME280_temperature;BME280_humidity;BME280_pressure;Samples;Min_cycle;Max_cycle;Signal;HPM_P1;HPM_P2
2022/08/29 00:01:49;;;;;;;9.27;8.20;;;;;;;16.18;100.00;98343.44;5103418;28;20230;-74
2022/08/29 00:04:16;;;;;;;10.50;9.03;;;;;;;16.12;100.00;98351.13;5102435;28;20554;-74
2022/08/29 00:06:42;;;;;;;10.27;8.73;;;;;;;16.06;100.00;98350.84;5101140;28;20284;-74
2022/08/29 00:09:09;;;;;;;10.40;9.30;;;;;;;16.04;100.00;98350.97;5101183;28;20223;-73
2022/08/29 00:11:36;;;;;;;10.40;8.93;;;;;;;16.02;100.00;98345.78;5103057;28;20305;-73
2022/08/29 00:14:02;;;;;;;10.87;9.33;;;;;;;15.98;100.00;98346.19;5102901;28;20265;-74
2022/08/29 00:16:29;;;;;;;10.53;9.43;;;;;;;15.96;100.00;98347.28;5101076;28;20268;-73
2022/08/29 00:18:58;;;;;;;11.87;10.67;;;;;;;15.94;100.00;98339.41;5099328;28;20245;-73
2022/08/29 00:21:24;;;;;;;12.23;10.33;;;;;;;15.90;100.00;98348.69;5098425;28;20242;-73
2022/08/29 00:23:51;;;;;;;11.93;10.63;;;;;;;15.84;100.00;98349.22;5101035;28;20222;-74
2022/08/29 00:26:18;;;;;;;11.53;10.23;;;;;;;15.85;100.00;98347.38;5100946;28;20614;-73
2022/08/29 00:28:44;;;;;;;11.43;10.00;;;;;;;15.81;100.00;98348.59;5100910;28;20222;-73
2022/08/29 00:31:11;;;;;;;11.60;10.00;;;;;;;15.86;100.00;98357.91;5102006;28;20222;-73
2022/08/29 00:33:38;;;;;;;11.97;10.23;;;;;;;15.86;100.00;98351.72;5103120;28;20225;-73
2022/08/29 00:36:08;;;;;;;10.57;9.47;;;;;;;15.84;100.00;98349.22;5100700;28;20223;-73
2022/08/29 00:38:35;;;;;;;14.73;10.87;;;;;;;15.81;100.00;98351.28;5100734;28;20242;-73
2022/08/29 00:41:01;;;;;;;11.37;10.17;;;;;;;15.80;100.00;98352.25;5100730;28;20258;-73
2022/08/29 00:43:31;;;;;;;10.77;9.73;;;;;;;15.78;100.00;98349.75;5100759;28;20270;-73
2022/08/29 00:46:05;;;;;;;13.63;10.20;;;;;;;15.77;100.00;98347.22;5099026;28;20276;-73
2022/08/29 00:48:34;;;;;;;9.93;8.93;;;;;;;15.77;100.00;98348.03;5100724;28;20580;-74
2022/08/29 00:51:05;;;;;;;11.20;10.03;;;;;;;15.81;100.00;98348.59;5103162;28;20233;-74
2022/08/29 00:53:37;;;;;;;11.93;10.30;;;;;;;15.80;100.00;98354.91;5101041;28;20319;-73
2022/08/29 00:56:06;;;;;;;12.37;10.43;;;;;;;15.77;100.00;98364.03;5088423;28;20268;-73
2022/08/29 00:58:38;;;;;;;11.00;9.90;;;;;;;15.78;100.00;98356.88;5100541;28;20296;-74
2022/08/29 01:01:05;;;;;;;11.37;10.10;;;;;;;15.75;100.00;98354.47;5095732;28;20265;-75
2022/08/29 01:03:32;;;;;;;11.43;10.33;;;;;;;15.71;100.00;98359.22;5107236;28;20580;-75
2022/08/29 01:06:00;;;;;;;11.70;10.50;;;;;;;15.69;100.00;98355.84;5107189;28;20313;-75
2022/08/29 01:08:27;;;;;;;12.47;10.73;;;;;;;15.61;100.00;98360.16;5107282;28;20387;-73
2022/08/29 01:13:42;;;;;;;10.77;9.67;;;;;;;15.62;100.00;98357.38;5107281;28;20649;-73
2022/08/29 01:16:11;;;;;;;12.20;10.07;;;;;;;15.62;100.00;98359.16;5107201;28;20226;-72
2022/08/29 01:18:41;;;;;;;10.90;9.80;;;;;;;15.50;100.00;98361.06;5110451;28;20305;-73
2022/08/29 01:21:16;;;;;;;11.20;9.97;;;;;;;15.43;100.00;98364.38;5099054;28;20232;-72
2022/08/29 01:23:50;;;;;;;11.30;10.20;;;;;;;15.37;100.00;98362.25;5095934;28;20233;-73
2022/08/29 01:26:20;;;;;;;13.17;11.20;;;;;;;15.37;100.00;98364.91;5108402;28;20225;-73
2022/08/29 01:28:51;;;;;;;13.77;11.20;;;;;;;15.32;100.00;98359.97;5108683;28;20685;-73
2022/08/29 01:31:20;;;;;;;15.27;12.10;;;;;;;15.26;100.00;98364.94;5106981;28;20356;-73
2022/08/29 01:33:49;;;;;;;13.20;11.47;;;;;;;15.28;100.00;98357.66;5107148;28;20287;-73
2022/08/29 01:36:19;;;;;;;11.87;10.53;;;;;;;15.22;100.00;98368.84;5110694;28;20324;-73
2022/08/29 01:38:46;;;;;;;13.50;11.27;;;;;;;15.17;100.00;98363.91;5106028;28;20662;-73
2022/08/29 01:41:13;;;;;;;16.47;11.83;;;;;;;15.21;100.00;98364.50;5106813;28;20320;-73
2022/08/29 01:43:45;;;;;;;13.23;11.13;;;;;;;15.20;100.00;98362.78;5106946;28;20308;-73
2022/08/29 01:46:14;;;;;;;13.47;10.73;;;;;;;15.27;100.00;98358.66;5110283;28;20222;-73
2022/08/29 01:48:44;;;;;;;12.43;11.07;;;;;;;15.23;100.00;98367.84;5099196;28;20225;-73
2022/08/29 01:51:12;;;;;;;11.87;10.67;;;;;;;15.20;100.00;98366.28;5094871;28;20230;-73
2022/08/29 01:53:39;;;;;;;12.30;10.93;;;;;;;15.21;100.00;98364.50;5106847;28;20222;-73
2022/08/29 01:56:10;;;;;;;11.50;10.30;;;;;;;15.20;100.00;98362.78;5099326;28;20261;-73
2022/08/29 01:58:37;;;;;;;11.00;9.90;;;;;;;15.22;100.00;98369.66;5106684;28;20246;-73
2022/08/29 02:01:06;;;;;;;12.23;10.93;;;;;;;15.21;100.00;98359.16;5106843;28;20309;-73
2022/08/29 02:03:33;;;;;;;13.03;11.10;;;;;;;15.15;100.00;98367.66;5105453;28;20619;-73
2022/08/29 02:06:00;;;;;;;12.30;11.00;;;;;;;15.06;100.00;98363.09;5109681;28;20291;-73
2022/08/29 02:08:27;;;;;;;12.83;11.27;;;;;;;14.94;100.00;98367.63;5106629;28;20251;-73
2022/08/29 02:10:54;;;;;;;13.17;11.13;;;;;;;14.95;100.00;98358.69;5105113;28;20234;-73
2022/08/29 02:13:23;;;;;;;12.03;10.77;;;;;;;15.01;100.00;98365.28;5103629;28;20226;-73
2022/08/29 02:15:50;;;;;;;12.20;11.00;;;;;;;14.99;100.00;98370.75;5106502;28;20370;-73
2022/08/29 02:18:18;;;;;;;12.67;11.30;;;;;;;14.87;100.00;98360.28;5103335;28;20303;-72
2022/08/29 02:20:45;;;;;;;13.10;11.67;;;;;;;14.80;100.00;98365.25;5101190;28;20253;-72
2022/08/29 02:23:12;;;;;;;12.43;10.37;;;;;;;14.82;100.00;98370.44;5099745;28;20661;-72
2022/08/29 02:25:41;;;;;;;13.07;11.03;;;;;;;14.81;100.00;98361.66;5106490;28;20230;-72
2022/08/29 02:28:09;;;;;;;12.27;11.07;;;;;;;14.86;100.00;98364.75;5103208;28;20647;-73
2022/08/29 02:30:36;;;;;;;12.97;11.57;;;;;;;14.86;100.00;98363.91;5101611;28;20271;-74
2022/08/29 02:33:03;;;;;;;12.43;10.83;;;;;;;14.86;100.00;98363.91;5103627;28;20282;-72
2022/08/29 02:35:31;;;;;;;14.23;12.33;;;;;;;14.68;100.00;98360.09;5105982;28;20265;-73
2022/08/29 02:37:58;;;;;;;13.83;11.70;;;;;;;14.70;100.00;98371.47;5102841;28;20234;-74
2022/08/29 02:40:25;;;;;;;14.60;11.80;;;;;;;14.75;100.00;98361.28;5102862;28;20274;-74
2022/08/29 02:42:52;;;;;;;15.90;13.83;;;;;;;14.80;100.00;98359.09;5103332;28;20281;-74
2022/08/29 02:45:19;;;;;;;15.43;13.53;;;;;;;14.85;100.00;98346.25;5105863;28;20267;-74
2022/08/29 02:47:46;;;;;;;15.77;13.70;;;;;;;14.82;100.00;98357.16;5102800;28;20230;-72
2022/08/29 02:50:13;;;;;;;16.77;13.87;;;;;;;14.75;100.00;98358.63;5102743;28;20222;-73
2022/08/29 02:52:42;;;;;;;17.13;14.37;;;;;;;14.68;100.00;98360.09;5102844;28;20314;-74
2022/08/29 02:55:14;;;;;;;17.77;14.00;;;;;;;14.66;100.00;98359.41;5103914;28;20627;-74
2022/08/29 02:57:41;;;;;;;17.13;13.63;;;;;;;14.71;100.00;98355.38;5102641;28;20222;-74
2022/08/29 03:00:11;;;;;;;16.33;13.70;;;;;;;14.78;100.00;98355.72;5102479;28;20734;-73
2022/08/29 03:02:38;;;;;;;15.57;12.97;;;;;;;14.76;100.00;98350.53;5103791;28;20585;-74
2022/08/29 03:05:06;;;;;;;15.37;12.53;;;;;;;14.73;100.00;98358.75;5104637;28;20573;-74
2022/08/29 03:07:32;;;;;;;14.30;12.80;;;;;;;14.74;100.00;98349.78;5102390;28;20264;-73
2022/08/29 03:10:00;;;;;;;13.77;11.87;;;;;;;14.68;100.00;98354.78;5102508;28;20260;-74
2022/08/29 03:12:28;;;;;;;15.30;12.13;;;;;;;14.57;100.00;98353.00;5099666;28;20638;-74
2022/08/29 03:14:55;;;;;;;12.77;11.30;;;;;;;14.57;100.00;98353.00;5104574;28;20526;-74
2022/08/29 03:17:21;;;;;;;14.23;12.33;;;;;;;14.61;100.00;98353.59;5102242;28;20265;-74
2022/08/29 03:19:48;;;;;;;14.83;11.90;;;;;;;14.62;100.00;98358.81;5102089;28;20326;-74
2022/08/29 03:22:15;;;;;;;13.70;12.10;;;;;;;14.58;100.00;98353.84;5096188;28;20272;-74
2022/08/29 03:24:42;;;;;;;15.13;11.83;;;;;;;14.50;100.00;98357.16;5101274;28;20295;-73
2022/08/29 03:27:10;;;;;;;13.43;11.33;;;;;;;14.47;100.00;98356.53;5101924;28;20229;-72
2022/08/29 03:29:37;;;;;;;12.53;11.07;;;;;;;14.45;100.00;98350.50;5102122;28;20271;-72
2022/08/29 03:32:03;;;;;;;12.77;11.03;;;;;;;14.32;100.00;98352.47;5102597;28;20228;-72
2022/08/29 03:34:31;;;;;;;11.67;10.47;;;;;;;14.30;100.00;98346.44;5104710;28;20228;-72
2022/08/29 03:36:58;;;;;;;13.73;12.30;;;;;;;14.25;100.00;98352.09;5101767;28;20403;-72
2022/08/29 03:39:25;;;;;;;15.40;10.63;;;;;;;14.29;100.00;98355.38;5101660;28;20298;-72
2022/08/29 03:41:52;;;;;;;13.50;11.93;;;;;;;14.26;100.00;98358.28;5102089;28;20229;-72
2022/08/29 03:44:21;;;;;;;13.83;11.70;;;;;;;14.34;100.00;98355.81;5104729;28;20232;-72
2022/08/29 03:46:48;;;;;;;14.33;11.30;;;;;;;14.26;100.00;98356.47;5099757;28;20623;-72
2022/08/29 03:49:15;;;;;;;12.53;11.23;;;;;;;14.25;100.00;98361.91;5101797;28;20236;-72
2022/08/29 03:51:42;;;;;;;12.87;11.47;;;;;;;14.17;100.00;98364.31;5101796;28;20329;-72
2022/08/29 03:54:09;;;;;;;13.27;10.90;;;;;;;14.15;100.00;98367.06;5104781;28;20259;-72
2022/08/29 03:56:36;;;;;;;13.80;11.03;;;;;;;14.13;100.00;98368.16;5101457;28;20265;-72
2022/08/29 03:59:02;;;;;;;13.67;11.23;;;;;;;14.14;100.00;98375.16;5101457;28;20249;-72
2022/08/29 04:01:30;;;;;;;14.47;12.30;;;;;;;14.11;100.00;98375.44;5101475;28;20274;-72
2022/08/29 04:03:58;;;;;;;14.27;11.97;;;;;;;14.10;100.00;98371.06;5097888;28;20695;-72
2022/08/29 04:06:27;;;;;;;15.10;12.53;;;;;;;14.08;100.00;98375.66;5101268;28;20254;-72
2022/08/29 04:08:55;;;;;;;16.03;12.80;;;;;;;14.12;100.00;98366.47;5101210;28;20304;-72
2022/08/29 04:11:23;;;;;;;14.13;12.53;;;;;;;14.11;100.00;98365.63;5101477;28;20630;-72
2022/08/29 04:13:51;;;;;;;14.63;12.17;;;;;;;14.10;100.00;98363.06;5102383;28;20315;-72
2022/08/29 04:16:20;;;;;;;14.83;11.97;;;;;;;14.17;100.00;98369.63;5101106;28;20306;-72
2022/08/29 04:18:49;;;;;;;13.83;12.20;;;;;;;14.11;100.00;98365.63;5101069;28;20571;-72
2022/08/29 04:21:17;;;;;;;14.20;11.93;;;;;;;14.12;100.00;98372.63;5099247;28;20221;-72
2022/08/29 04:23:45;;;;;;;15.10;12.77;;;;;;;14.18;100.00;98376.63;5101040;28;20239;-72
2022/08/29 04:26:14;;;;;;;14.00;11.53;;;;;;;14.15;100.00;98371.53;5097495;28;20256;-72
2022/08/29 04:28:41;;;;;;;16.27;13.17;;;;;;;14.23;100.00;98383.28;5100989;28;20229;-72
2022/08/29 04:31:12;;;;;;;15.23;13.30;;;;;;;14.28;100.00;98385.56;5102152;28;20258;-72
2022/08/29 04:33:39;;;;;;;14.03;11.03;;;;;;;14.30;100.00;98381.00;5102319;28;20316;-71
2022/08/29 04:36:07;;;;;;;13.80;10.53;;;;;;;14.24;100.00;98382.31;5100547;28;20272;-72
2022/08/29 04:38:34;;;;;;;11.63;10.43;;;;;;;14.27;100.00;98379.44;5099028;28;20271;-72
2022/08/29 04:41:05;;;;;;;11.83;9.07;;;;;;;14.29;100.00;98379.31;5102290;28;20241;-73
2022/08/29 04:43:33;;;;;;;11.23;9.87;;;;;;;14.24;100.00;98386.81;5102049;28;20225;-73
2022/08/29 04:46:00;;;;;;;11.43;9.43;;;;;;;14.17;100.00;98381.09;5100774;28;20514;-73
2022/08/29 04:48:27;;;;;;;11.57;9.50;;;;;;;14.09;100.00;98383.50;5100712;28;20525;-73
2022/08/29 04:50:55;;;;;;;10.87;9.67;;;;;;;14.05;100.00;98383.88;5102756;28;20276;-73
2022/08/29 04:53:24;;;;;;;12.77;9.77;;;;;;;14.00;100.00;98383.41;5101812;28;20713;-72
2022/08/29 04:55:56;;;;;;;11.10;9.30;;;;;;;13.98;100.00;98385.31;5100484;28;20303;-72
2022/08/29 04:58:24;;;;;;;12.03;10.07;;;;;;;13.95;100.00;98390.88;5100632;28;20338;-73
2022/08/29 05:00:51;;;;;;;11.70;10.37;;;;;;;13.94;100.00;98386.53;5103453;28;20251;-72
2022/08/29 05:03:18;;;;;;;11.00;9.90;;;;;;;14.03;100.00;98383.13;5100941;28;20542;-72
2022/08/29 05:05:45;;;;;;;13.77;10.43;;;;;;;14.04;100.00;98384.81;5098743;28;20277;-73
2022/08/29 05:08:12;;;;;;;11.67;10.20;;;;;;;14.06;100.00;98385.56;5100424;28;20257;-72
2022/08/29 05:10:40;;;;;;;11.60;10.00;;;;;;;14.09;100.00;98395.94;5103272;28;20311;-72
2022/08/29 05:13:07;;;;;;;11.13;10.00;;;;;;;14.17;100.00;98401.53;5101020;28;20228;-73
2022/08/29 05:15:34;;;;;;;10.47;9.37;;;;;;;14.22;100.00;98409.97;5100396;28;20229;-73
2022/08/29 05:18:00;;;;;;;10.47;9.20;;;;;;;14.27;100.00;98405.16;5100493;28;20232;-72
2022/08/29 05:20:27;;;;;;;10.90;9.23;;;;;;;14.33;100.00;98407.31;5100281;28;20242;-72
2022/08/29 05:22:54;;;;;;;9.50;8.60;;;;;;;14.42;100.00;98411.94;5096564;28;20267;-73
2022/08/29 05:25:20;;;;;;;11.50;9.33;;;;;;;14.47;100.00;98415.03;5100444;28;20227;-72
2022/08/29 05:27:48;;;;;;;10.80;9.13;;;;;;;14.54;100.00;98413.59;5100513;28;20285;-72
2022/08/29 05:30:16;;;;;;;12.53;9.77;;;;;;;14.63;100.00;98415.50;5102303;28;20278;-72
2022/08/29 05:32:42;;;;;;;15.20;12.00;;;;;;;14.71;100.00;98419.22;5100064;28;20227;-72
2022/08/29 05:35:10;;;;;;;12.50;10.70;;;;;;;14.83;100.00;98412.91;5100092;28;20226;-72
2022/08/29 05:37:37;;;;;;;14.20;11.30;;;;;;;14.94;100.00;98409.38;5100188;28;20257;-72
2022/08/29 05:40:04;;;;;;;11.67;10.43;;;;;;;15.01;100.00;98407.88;5102207;28;20545;-72
2022/08/29 05:42:31;;;;;;;12.93;11.53;;;;;;;15.11;100.00;98411.47;5098842;28;20648;-72
2022/08/29 05:44:59;;;;;;;12.57;10.63;;;;;;;15.29;100.00;98416.13;5100193;28;20232;-72
2022/08/29 05:47:26;;;;;;;14.13;11.87;;;;;;;15.43;100.00;98415.00;5102671;28;20286;-73
2022/08/29 05:49:53;;;;;;;15.10;11.37;;;;;;;15.57;100.00;98404.03;5105862;28;20257;-73
2022/08/29 05:52:20;;;;;;;14.97;12.97;;;;;;;15.70;100.00;98410.00;5105530;28;20340;-73
2022/08/29 05:54:47;;;;;;;14.80;12.53;;;;;;;15.78;100.00;98412.84;5103963;28;20594;-73
2022/08/29 05:57:17;;;;;;;14.17;11.47;;;;;;;15.86;100.00;98418.34;5102096;28;20230;-73
2022/08/29 05:59:44;;;;;;;16.07;11.20;;;;;;;15.94;100.00;98414.06;5105787;28;20242;-73
2022/08/29 06:02:12;;;;;;;13.50;11.20;;;;;;;16.04;100.00;98426.47;5105284;28;20279;-73
2022/08/29 06:04:39;;;;;;;12.80;10.87;;;;;;;16.14;100.00;98435.34;5103660;28;20580;-73
2022/08/29 06:07:07;;;;;;;10.97;9.77;;;;;;;16.25;100.00;98432.59;5103600;28;20301;-73
2022/08/29 06:09:35;;;;;;;12.10;10.07;;;;;;;16.37;100.00;98444.03;5105672;28;20219;-73
2022/08/29 06:12:02;;;;;;;10.37;9.33;;;;;;;16.69;100.00;98434.03;5104902;28;20331;-73
2022/08/29 06:14:29;;;;;;;12.20;10.93;;;;;;;16.80;100.00;98437.47;5103655;28;20223;-72
2022/08/29 06:16:55;;;;;;;11.83;10.17;;;;;;;16.82;100.00;98453.34;5103464;28;20275;-72
2022/08/29 06:19:24;;;;;;;12.60;10.03;;;;;;;16.92;100.00;98449.72;5105261;28;20642;-72
2022/08/29 06:21:51;;;;;;;11.50;9.30;;;;;;;16.93;100.00;98455.88;5099685;28;20265;-72
2022/08/29 06:24:18;;;;;;;10.33;8.17;;;;;;;17.00;100.00;98455.19;5101704;28;20230;-72
2022/08/29 06:26:44;;;;;;;9.83;8.10;;;;;;;17.07;100.00;98460.84;5103418;28;20272;-72
2022/08/29 06:29:13;;;;;;;10.47;8.53;;;;;;;17.16;100.00;98452.84;5104862;28;20222;-72
2022/08/29 06:31:41;;;;;;;8.70;7.80;;;;;;;17.26;100.00;98463.53;5104799;28;20220;-73
2022/08/29 06:34:08;;;;;;;9.63;8.07;;;;;;;17.38;100.00;98460.59;5103132;28;20284;-72
2022/08/29 06:36:36;;;;;;;8.73;7.07;;;;;;;17.45;100.00;98458.22;5103179;28;20227;-72
2022/08/29 06:39:06;;;;;;;9.10;7.50;;;;;;;17.50;100.00;98461.34;5105138;28;20276;-72
2022/08/29 06:41:34;;;;;;;7.37;6.53;;;;;;;17.60;100.00;98460.34;5104149;28;20322;-73
2022/08/29 06:44:01;;;;;;;8.00;6.40;;;;;;;17.78;100.00;98468.47;5103006;28;20276;-72
2022/08/29 06:46:31;;;;;;;6.90;6.20;;;;;;;17.81;100.00;98458.34;5103089;28;20234;-74
2022/08/29 06:48:59;;;;;;;9.57;7.10;;;;;;;17.97;98.00;98469.28;5103643;28;20715;-73
2022/08/29 06:51:31;;;;;;;7.30;6.33;;;;;;;18.03;98.26;98466.03;5103522;28;20223;-72
2022/08/29 06:53:59;;;;;;;8.53;6.33;;;;;;;18.12;95.75;98470.53;5102765;28;20310;-72
2022/08/29 06:56:26;;;;;;;8.23;6.23;;;;;;;18.17;94.86;98476.28;5102822;28;20280;-73
2022/08/29 06:58:53;;;;;;;7.63;6.23;;;;;;;18.29;93.20;98480.47;5102021;28;20261;-73
2022/08/29 07:01:21;;;;;;;8.33;5.80;;;;;;;18.34;92.94;98472.06;5102677;28;20248;-72
2022/08/29 07:03:48;;;;;;;6.87;5.60;;;;;;;18.45;94.51;98470.03;5102529;28;20318;-72
2022/08/29 07:06:16;;;;;;;7.80;5.77;;;;;;;18.50;91.95;98467.78;5102443;28;20262;-73
2022/08/29 07:08:43;;;;;;;6.50;5.77;;;;;;;18.58;93.77;98469.69;5105824;28;20230;-73
2022/08/29 07:11:12;;;;;;;7.60;6.03;;;;;;;18.65;93.68;98477.00;5102494;28;20265;-73
2022/08/29 07:13:40;;;;;;;8.90;6.77;;;;;;;18.80;94.62;98483.56;5102582;28;20258;-73
2022/08/29 07:16:08;;;;;;;8.27;5.70;;;;;;;18.90;94.03;98487.00;5100710;28;20223;-73
2022/08/29 07:18:35;;;;;;;8.93;6.93;;;;;;;18.98;91.74;98476.41;5106073;28;20226;-73
2022/08/29 07:21:05;;;;;;;7.17;5.87;;;;;;;18.99;91.96;98487.94;5094305;28;20242;-72
2022/08/29 07:23:32;;;;;;;7.40;6.63;;;;;;;19.03;91.20;98481.31;5090394;28;20226;-72
2022/08/29 07:26:06;;;;;;;9.77;6.77;;;;;;;19.12;91.92;98486.63;5102207;28;20283;-72
2022/08/29 07:28:35;;;;;;;8.80;6.83;;;;;;;19.20;92.49;98492.09;5097733;28;20268;-73
2022/08/29 07:31:02;;;;;;;7.87;6.67;;;;;;;19.34;92.81;98488.06;5099358;28;20224;-71
2022/08/29 07:33:30;;;;;;;8.40;6.83;;;;;;;19.46;90.98;98490.38;5100895;28;20235;-72
2022/08/29 07:35:56;;;;;;;8.70;7.33;;;;;;;19.56;91.48;98482.25;5101977;28;20246;-73
2022/08/29 07:38:23;;;;;;;8.10;7.17;;;;;;;19.63;89.16;98484.16;5100478;28;20284;-72
2022/08/29 07:40:57;;;;;;;8.63;7.13;;;;;;;19.63;90.29;98486.00;5098095;28;20238;-72
2022/08/29 07:43:24;;;;;;;8.33;6.93;;;;;;;19.70;89.07;98493.25;5100989;28;20229;-72
2022/08/29 07:45:53;;;;;;;7.63;6.83;;;;;;;19.81;88.85;98500.25;5099275;28;20223;-71
2022/08/29 07:48:20;;;;;;;9.10;7.40;;;;;;;19.78;87.01;98497.84;5099640;28;20632;-73
2022/08/29 07:50:47;;;;;;;10.83;8.20;;;;;;;19.94;87.54;98495.31;5101431;28;20269;-73
2022/08/29 07:53:14;;;;;;;7.73;6.90;;;;;;;19.96;87.87;98494.19;5099964;28;20263;-73
2022/08/29 07:55:40;;;;;;;7.83;7.03;;;;;;;20.12;86.22;98486.25;5099710;28;20254;-71
2022/08/29 07:58:07;;;;;;;8.60;7.07;;;;;;;20.16;87.39;98495.69;5099392;28;20254;-71
2022/08/29 08:00:34;;;;;;;7.57;6.63;;;;;;;20.30;87.21;98487.06;5099953;28;20305;-71
2022/08/29 08:03:02;;;;;;;8.50;6.47;;;;;;;20.42;85.52;98490.34;5100629;28;20261;-72
2022/08/29 08:05:29;;;;;;;10.03;6.87;;;;;;;20.52;86.23;98493.72;5099642;28;20716;-72
2022/08/29 08:07:56;;;;;;;8.97;6.33;;;;;;;20.57;85.60;98484.22;5096518;28;20222;-71
2022/08/29 08:10:23;;;;;;;10.70;6.73;;;;;;;20.71;84.31;98491.66;5099492;28;20272;-71
2022/08/29 08:12:50;;;;;;;10.03;7.43;;;;;;;20.70;81.20;98490.00;5100880;28;20230;-72
2022/08/29 08:15:18;;;;;;;8.13;6.27;;;;;;;20.74;81.09;98491.38;5098762;28;20219;-72
2022/08/29 08:17:45;;;;;;;8.40;6.77;;;;;;;20.83;80.36;98497.59;5098951;28;20231;-72
2022/08/29 08:20:13;;;;;;;9.03;6.90;;;;;;;20.87;81.43;98497.13;5099846;28;20242;-72
2022/08/29 08:22:40;;;;;;;10.00;7.03;;;;;;;20.86;81.87;98500.78;5101501;28;20229;-72
2022/08/29 08:25:07;;;;;;;8.40;6.93;;;;;;;20.92;81.37;98500.19;5100089;28;20262;-72
2022/08/29 08:27:34;;;;;;;8.07;6.90;;;;;;;20.94;81.37;98498.19;5100090;28;20554;-73
2022/08/29 08:30:00;;;;;;;9.70;7.13;;;;;;;21.03;81.33;98499.91;5100681;28;20573;-73
2022/08/29 08:32:27;;;;;;;7.03;6.33;;;;;;;21.17;81.31;98490.38;5101762;28;20279;-73
2022/08/29 08:34:54;;;;;;;7.27;6.47;;;;;;;21.38;82.89;98491.63;5097868;28;20225;-72
2022/08/29 08:37:22;;;;;;;9.73;7.23;;;;;;;21.54;80.75;98502.41;5099729;28;20229;-70
2022/08/29 08:39:48;;;;;;;7.37;6.23;;;;;;;21.70;79.73;98497.06;5100119;28;20284;-69
2022/08/29 08:42:23;;;;;;;7.40;6.57;;;;;;;21.90;79.02;98497.59;5101758;28;20607;-68
2022/08/29 08:45:06;;;;;;;7.43;6.30;;;;;;;21.98;78.93;98501.13;5099886;28;20233;-69
2022/08/29 08:47:38;;;;;;;8.20;7.37;;;;;;;22.17;77.52;98495.41;5099718;28;20222;-70
2022/08/29 08:50:11;;;;;;;10.03;6.83;;;;;;;22.14;76.34;98494.91;5097276;28;20612;-69
2022/08/29 08:52:45;;;;;;;8.40;6.50;;;;;;;22.12;76.44;98503.16;5099567;28;20238;-68
2022/08/29 08:55:20;;;;;;;7.70;6.90;;;;;;;22.12;76.51;98503.16;5099596;28;20280;-68
2022/08/29 08:58:01;;;;;;;6.67;5.60;;;;;;;22.31;77.42;98502.78;5102236;28;20609;-70
2022/08/29 09:00:35;;;;;;;6.80;6.03;;;;;;;22.52;78.34;98504.97;5090662;28;20299;-70
2022/08/29 09:03:12;;;;;;;15.70;7.10;;;;;;;22.79;76.58;98497.34;5099607;28;20223;-69
2022/08/29 09:05:51;;;;;;;8.37;6.20;;;;;;;22.97;75.94;98499.81;5102135;28;20279;-69
2022/08/29 09:08:29;;;;;;;7.03;6.33;;;;;;;23.24;73.47;98500.22;5092016;28;20233;-69
2022/08/29 09:11:01;;;;;;;7.97;6.33;;;;;;;23.26;72.49;98495.50;5099557;28;20554;-70
2022/08/29 09:13:45;;;;;;;8.30;5.80;;;;;;;23.18;72.21;98492.84;5101764;28;20306;-71
2022/08/29 09:16:22;;;;;;;6.07;5.47;;;;;;;23.28;72.25;98498.84;5092318;28;20266;-71
2022/08/29 09:18:49;;;;;;;10.30;6.83;;;;;;;23.43;70.68;98502.47;5099335;28;20295;-71
2022/08/29 09:21:19;;;;;;;6.60;5.93;;;;;;;23.37;71.63;98503.19;5103234;28;20288;-71
2022/08/29 09:23:51;;;;;;;7.23;6.07;;;;;;;23.39;71.75;98501.16;5103738;28;20284;-70
2022/08/29 09:26:20;;;;;;;7.27;6.20;;;;;;;23.45;71.62;98505.84;5101609;28;20226;-71
2022/08/29 09:28:47;;;;;;;7.07;6.30;;;;;;;23.49;70.69;98507.16;5103265;28;20295;-71
2022/08/29 09:31:18;;;;;;;5.90;5.27;;;;;;;23.53;70.21;98500.38;5105982;28;20278;-71
2022/08/29 09:33:48;;;;;;;6.37;5.40;;;;;;;23.65;69.85;98496.25;5103246;28;20276;-71
2022/08/29 09:36:33;;;;;;;6.93;6.23;;;;;;;23.70;69.26;98498.41;5103103;28;20222;-71
2022/08/29 09:39:15;;;;;;;11.47;6.93;;;;;;;23.69;69.04;98497.59;5100464;28;20223;-71
2022/08/29 09:41:42;;;;;;;8.90;6.23;;;;;;;23.83;68.61;98494.09;5095222;28;20356;-72
2022/08/29 09:44:14;;;;;;;9.57;6.17;;;;;;;23.92;69.01;98493.06;5103069;28;20272;-72
2022/08/29 09:46:41;;;;;;;6.80;5.87;;;;;;;24.07;69.28;98501.22;5103683;28;20257;-71
2022/08/29 09:49:15;;;;;;;9.33;6.67;;;;;;;24.10;69.03;98495.44;5105104;28;20222;-72
2022/08/29 09:51:43;;;;;;;8.90;6.50;;;;;;;24.22;69.05;98505.66;5102304;28;20242;-71
2022/08/29 09:54:25;;;;;;;6.87;6.03;;;;;;;24.32;68.14;98495.41;5102308;28;20301;-71
2022/08/29 09:56:57;;;;;;;7.83;6.50;;;;;;;24.34;66.12;98496.06;5105608;28;20266;-71
2022/08/29 09:59:28;;;;;;;7.60;5.47;;;;;;;24.28;65.91;98494.09;5102719;28;20616;-71
2022/08/29 10:02:14;;;;;;;8.47;6.17;;;;;;;24.33;64.37;98486.25;5102673;28;20591;-72
2022/08/29 10:04:43;;;;;;;8.67;6.27;;;;;;;24.37;64.62;98487.59;5105532;28;20222;-71
2022/08/29 10:07:11;;;;;;;6.80;5.73;;;;;;;24.26;64.59;98484.50;5102531;28;20276;-71
2022/08/29 10:09:39;;;;;;;7.67;6.03;;;;;;;24.45;63.50;98483.97;5102496;28;20227;-71
2022/08/29 10:12:11;;;;;;;9.90;5.87;;;;;;;24.57;66.33;98486.06;5102484;28;20254;-71
2022/08/29 10:14:43;;;;;;;9.27;5.80;;;;;;;24.64;63.14;98492.41;5102562;28;20225;-71
2022/08/29 10:20:00;;;;;;;8.67;5.50;;;;;;;24.50;65.30;98493.19;5093646;28;20213;-71
2022/08/29 10:22:34;;;;;;;6.37;5.77;;;;;;;24.58;63.93;98495.03;5105055;28;20278;-72
2022/08/29 10:25:08;;;;;;;7.00;5.37;;;;;;;24.71;62.61;98496.06;5102332;28;20234;-71
2022/08/29 10:27:42;;;;;;;5.60;5.10;;;;;;;24.67;62.40;98497.44;5102264;28;20226;-71
2022/08/29 10:30:12;;;;;;;7.10;5.23;;;;;;;24.65;60.61;98501.34;5104441;28;20230;-71
2022/08/29 10:32:57;;;;;;;7.43;5.07;;;;;;;24.67;61.60;98502.00;5101577;28;20287;-71
2022/08/29 10:35:29;;;;;;;6.13;4.53;;;;;;;24.86;62.77;98502.28;5100657;28;20222;-73
2022/08/29 10:37:59;;;;;;;6.20;5.27;;;;;;;24.98;61.48;98495.41;5100820;28;20269;-72
2022/08/29 10:40:31;;;;;;;7.17;4.60;;;;;;;25.11;60.32;98492.84;5101788;28;20589;-72
2022/08/29 10:43:20;;;;;;;6.27;4.97;;;;;;;25.34;58.31;98487.34;5101325;28;20627;-72
2022/08/29 10:46:11;;;;;;;6.10;4.63;;;;;;;25.23;58.17;98491.34;5095929;28;20657;-71
2022/08/29 10:48:49;;;;;;;8.77;5.30;;;;;;;25.19;56.87;98481.97;5097843;28;20284;-73
2022/08/29 10:51:22;;;;;;;5.30;4.20;;;;;;;25.20;57.17;98483.63;5110124;28;20230;-72
2022/08/29 10:53:57;;;;;;;6.60;4.53;;;;;;;25.15;59.22;98482.50;5109622;28;20575;-72
2022/08/29 10:56:34;;;;;;;5.77;4.50;;;;;;;25.19;56.63;98481.09;5112935;28;20593;-71
2022/08/29 10:59:10;;;;;;;4.87;4.37;;;;;;;25.10;56.30;98474.09;5111524;28;20225;-73
2022/08/29 11:01:41;;;;;;;8.37;4.30;;;;;;;25.20;57.35;98480.94;5109030;28;20242;-72
2022/08/29 11:04:17;;;;;;;6.00;4.17;;;;;;;25.36;58.80;98475.31;5112710;28;20650;-73
2022/08/29 11:06:50;;;;;;;6.90;4.60;;;;;;;25.50;53.71;98471.75;5112588;28;20666;-73
2022/08/29 11:09:21;;;;;;;5.53;4.43;;;;;;;25.60;55.06;98472.25;5103495;28;20252;-73
2022/08/29 11:12:02;;;;;;;6.67;4.30;;;;;;;25.48;55.49;98467.53;5110337;28;20366;-73
2022/08/29 11:14:35;;;;;;;6.43;4.80;;;;;;;25.33;54.15;98464.88;5112591;28;20230;-73
2022/08/29 11:17:04;;;;;;;5.23;4.03;;;;;;;25.28;56.43;98466.47;5102443;28;20598;-73
2022/08/29 11:19:36;;;;;;;5.90;4.60;;;;;;;25.44;57.13;98461.69;5110102;28;20280;-72
2022/08/29 11:22:09;;;;;;;5.10;4.17;;;;;;;25.54;54.73;98459.47;5105094;28;20288;-73
2022/08/29 11:24:40;;;;;;;5.40;3.90;;;;;;;25.64;56.61;98457.31;5110830;28;20256;-73
2022/08/29 11:27:18;;;;;;;5.40;4.50;;;;;;;25.65;55.23;98453.56;5108659;28;20226;-70
2022/08/29 11:29:54;;;;;;;5.40;4.00;;;;;;;25.58;55.19;98452.66;5094968;28;20226;-69
2022/08/29 11:32:26;;;;;;;4.83;4.13;;;;;;;25.66;54.66;98449.81;5111704;28;20259;-69
2022/08/29 11:35:07;;;;;;;4.10;3.70;;;;;;;25.68;55.50;98445.06;5108365;28;20265;-68